createdAt,value
2023-04-15T00:00:31.615Z,0.51
2023-04-15T00:01:31.617Z,0.52
2023-04-15T00:02:31.659Z,0.51
2023-04-15T00:03:31.807Z,0.50
2023-04-15T00:04:31.710Z,0.52
2023-04-15T00:05:31.657Z,0.52
2023-04-15T00:06:31.695Z,0.51
2023-04-15T00:07:31.689Z,0.52
2023-04-15T00:08:31.760Z,0.51
2023-04-15T00:09:31.762Z,0.51
2023-04-15T00:10:31.807Z,0.52
2023-04-15T00:11:31.829Z,0.52
2023-04-15T00:12:31.839Z,0.51
2023-04-15T00:13:31.909Z,0.51
2023-04-15T00:14:31.895Z,0.51
2023-04-15T00:15:31.914Z,0.52
2023-04-15T00:16:31.979Z,0.51
2023-04-15T00:17:32.007Z,0.50
2023-04-15T00:18:32.030Z,0.51
2023-04-15T00:19:32.082Z,0.51
2023-04-15T00:20:32.092Z,0.52
2023-04-15T00:21:32.118Z,0.51
2023-04-15T00:22:32.194Z,0.52
2023-04-15T00:23:32.192Z,0.52
2023-04-15T00:24:32.220Z,0.51
2023-04-15T00:25:32.252Z,0.52
2023-04-15T00:26:32.292Z,0.52
2023-04-15T00:27:32.303Z,0.52
2023-04-15T00:28:32.346Z,0.52
2023-04-15T00:29:32.405Z,0.53
2023-04-15T00:30:32.466Z,0.51
2023-04-15T00:31:32.447Z,0.53
2023-04-15T00:32:32.511Z,0.51
2023-04-15T00:33:32.517Z,0.51
2023-04-15T00:34:32.544Z,0.52
2023-04-15T00:35:32.576Z,0.52
2023-04-15T00:36:32.657Z,0.52
2023-04-15T00:37:32.626Z,0.51
2023-04-15T00:38:32.685Z,0.52
2023-04-15T00:39:32.693Z,0.52
2023-04-15T00:40:32.733Z,0.51
2023-04-15T00:41:32.788Z,0.52
2023-04-15T00:42:32.831Z,0.52
2023-04-15T00:43:32.831Z,0.52
2023-04-15T00:44:32.842Z,0.52
2023-04-15T00:45:32.898Z,0.53
2023-04-15T00:46:32.913Z,0.52
2023-04-15T00:47:32.958Z,0.52
2023-04-15T00:48:32.971Z,0.51
2023-04-15T00:49:33.018Z,0.51
2023-04-15T00:50:33.093Z,0.51
2023-04-15T00:51:33.056Z,0.52
2023-04-15T00:52:33.094Z,0.51
2023-04-15T00:53:33.158Z,0.50
2023-04-15T00:54:33.161Z,0.52
2023-04-15T00:55:33.192Z,0.51
2023-04-15T00:56:33.207Z,0.51
2023-04-15T00:57:33.263Z,0.52
2023-04-15T00:58:33.275Z,0.51
2023-04-15T00:59:33.540Z,0.51
2023-04-15T01:00:33.348Z,0.51
2023-04-15T01:01:33.398Z,0.51
2023-04-15T01:02:33.530Z,0.51
2023-04-15T01:03:33.603Z,0.51
2023-04-15T01:04:33.629Z,0.50
2023-04-15T01:05:33.523Z,0.50
2023-04-15T01:06:33.561Z,0.52
2023-04-15T01:07:33.585Z,0.51
2023-04-15T01:08:33.631Z,0.51
2023-04-15T01:09:33.664Z,0.51
2023-04-15T01:10:33.693Z,0.52
2023-04-15T01:11:33.721Z,0.52
2023-04-15T01:12:33.786Z,0.50
2023-04-15T01:13:33.799Z,0.51
2023-04-15T01:14:33.871Z,0.52
2023-04-15T01:15:33.870Z,0.51
2023-04-15T01:16:33.992Z,0.52
2023-04-15T01:17:33.972Z,0.51
2023-04-15T01:18:33.960Z,0.51
2023-04-15T01:19:34.057Z,0.51
2023-04-15T01:20:34.041Z,0.51
2023-04-15T01:21:34.089Z,0.52
2023-04-15T01:22:34.104Z,0.52
2023-04-15T01:23:34.172Z,0.51
2023-04-15T01:24:34.229Z,0.51
2023-04-15T01:25:34.228Z,0.52
2023-04-15T01:26:34.254Z,0.52
2023-04-15T01:27:34.309Z,0.51
2023-04-15T01:28:35.047Z,0.51
2023-04-15T01:29:34.409Z,0.51
2023-04-15T01:30:34.429Z,0.51
2023-04-15T01:31:34.463Z,0.51
2023-04-15T01:32:34.519Z,0.50
2023-04-15T01:33:34.520Z,0.51
2023-04-15T01:34:35.769Z,0.50
2023-04-15T01:35:34.625Z,0.51
2023-04-15T01:36:34.622Z,0.51
2023-04-15T01:37:34.666Z,0.52
2023-04-15T01:38:34.722Z,0.53
2023-04-15T01:39:34.800Z,0.51
2023-04-15T01:40:34.766Z,0.51
2023-04-15T01:41:34.780Z,0.50
2023-04-15T01:42:34.848Z,0.52
2023-04-15T01:43:34.870Z,0.52
2023-04-15T01:44:34.939Z,0.51
2023-04-15T01:45:34.949Z,0.51
2023-04-15T01:46:35.010Z,0.51
2023-04-15T01:47:35.110Z,0.51
2023-04-15T01:48:35.062Z,0.51
2023-04-15T01:49:35.599Z,0.51
2023-04-15T01:50:35.137Z,0.50
2023-04-15T01:51:35.170Z,0.52
2023-04-15T01:52:35.200Z,0.51
2023-04-15T01:53:35.257Z,0.50
2023-04-15T01:54:35.340Z,0.52
2023-04-15T01:55:35.336Z,0.50
2023-04-15T01:56:35.378Z,0.51
2023-04-15T01:57:35.420Z,0.52
2023-04-15T01:58:35.477Z,0.52
2023-04-15T01:59:35.521Z,0.52
2023-04-15T02:00:35.613Z,0.52
2023-04-15T02:01:35.604Z,0.51
2023-04-15T02:02:35.789Z,0.50
2023-04-15T02:03:35.746Z,0.52
2023-04-15T02:04:35.834Z,0.52
2023-04-15T02:05:35.802Z,0.53
2023-04-15T02:06:35.863Z,0.52
2023-04-15T02:07:35.891Z,0.51
2023-04-15T02:08:35.947Z,0.52
2023-04-15T02:09:36.009Z,0.51
2023-04-15T02:10:36.044Z,0.50
2023-04-15T02:11:36.111Z,0.51
2023-04-15T02:12:36.158Z,0.51
2023-04-15T02:13:36.243Z,0.52
2023-04-15T02:14:36.635Z,0.51
2023-04-15T02:15:36.295Z,0.52
2023-04-15T02:16:36.402Z,0.52
2023-04-15T02:17:36.430Z,0.52
2023-04-15T02:18:36.458Z,0.52
2023-04-15T02:19:36.514Z,0.51
2023-04-15T02:20:36.542Z,0.53
2023-04-15T02:21:36.603Z,0.52
2023-04-15T02:22:36.641Z,0.53
2023-04-15T02:23:36.669Z,0.54
2023-04-15T02:24:36.778Z,0.53
2023-04-15T02:25:36.786Z,0.53
2023-04-15T02:26:36.804Z,0.53
2023-04-15T02:27:36.880Z,0.54
2023-04-15T02:28:36.892Z,0.51
2023-04-15T02:29:36.965Z,0.53
2023-04-15T02:30:37.005Z,0.52
2023-04-15T02:31:37.176Z,0.52
2023-04-15T02:32:37.106Z,0.52
2023-04-15T02:33:37.127Z,0.51
2023-04-15T02:34:37.183Z,0.51
2023-04-15T02:35:37.224Z,0.52
2023-04-15T02:36:37.256Z,0.51
2023-04-15T02:37:37.312Z,0.52
2023-04-15T02:38:37.336Z,0.51
2023-04-15T02:39:37.459Z,0.50
2023-04-15T02:40:37.446Z,0.51
2023-04-15T02:41:37.467Z,0.50
2023-04-15T02:42:37.524Z,0.51
2023-04-15T02:43:37.578Z,0.51
2023-04-15T02:44:37.658Z,0.50
2023-04-15T02:45:37.719Z,0.50
2023-04-15T02:46:37.709Z,0.51
2023-04-15T02:47:37.778Z,0.52
2023-04-15T02:48:37.816Z,0.50
2023-04-15T02:49:37.880Z,0.50
2023-04-15T02:50:37.892Z,0.51
2023-04-15T02:51:37.951Z,0.51
2023-04-15T02:52:37.989Z,0.51
2023-04-15T02:53:38.134Z,0.50
2023-04-15T02:54:38.094Z,0.50
2023-04-15T02:55:38.137Z,0.51
2023-04-15T02:56:38.169Z,0.52
2023-04-15T02:57:38.203Z,0.50
2023-04-15T02:58:38.273Z,0.51
2023-04-15T02:59:38.638Z,0.50
2023-04-15T03:00:38.361Z,0.51
2023-04-15T03:01:38.442Z,0.52
2023-04-15T03:02:38.630Z,0.51
2023-04-15T03:03:38.616Z,0.51
2023-04-15T03:04:38.561Z,0.51
2023-04-15T03:05:38.615Z,0.50
2023-04-15T03:06:38.625Z,0.52
2023-04-15T03:07:38.704Z,0.51
2023-04-15T03:08:38.767Z,0.52
2023-04-15T03:09:38.786Z,0.50
2023-04-15T03:10:38.825Z,0.51
2023-04-15T03:11:38.861Z,0.51
2023-04-15T03:12:38.915Z,0.51
2023-04-15T03:13:38.981Z,0.51
2023-04-15T03:14:39.010Z,0.52
2023-04-15T03:15:39.118Z,0.53
2023-04-15T03:16:39.114Z,0.52
2023-04-15T03:17:39.209Z,0.52
2023-04-15T03:18:39.227Z,0.50
2023-04-15T03:19:39.304Z,0.52
2023-04-15T03:20:39.322Z,0.52
2023-04-15T03:21:39.372Z,0.51
2023-04-15T03:22:39.410Z,0.51
2023-04-15T03:23:39.459Z,0.53
2023-04-15T03:24:39.537Z,0.54
2023-04-15T03:25:39.555Z,0.53
2023-04-15T03:26:39.609Z,0.55
2023-04-15T03:27:39.701Z,0.54
2023-04-15T03:28:39.707Z,0.52
2023-04-15T03:29:39.790Z,0.55
2023-04-15T03:30:39.882Z,0.55
2023-04-15T03:31:39.930Z,0.56
2023-04-15T03:32:40.023Z,0.55
2023-04-15T03:33:39.969Z,0.55
2023-04-15T03:34:40.013Z,0.55
2023-04-15T03:35:40.110Z,0.54
2023-04-15T03:36:40.098Z,0.55
2023-04-15T03:37:40.144Z,0.54
2023-04-15T03:38:40.205Z,0.54
2023-04-15T03:39:40.272Z,0.53
2023-04-15T03:40:40.317Z,0.55
2023-04-15T03:41:40.350Z,0.52
2023-04-15T03:42:40.397Z,0.51
2023-04-15T03:43:40.446Z,0.53
2023-04-15T03:44:40.520Z,0.52
2023-04-15T03:45:40.592Z,0.51
2023-04-15T03:46:40.632Z,0.52
2023-04-15T03:47:40.810Z,0.52
2023-04-15T03:48:40.703Z,0.52
2023-04-15T03:49:40.766Z,0.52
2023-04-15T03:50:40.835Z,0.54
2023-04-15T03:51:40.870Z,0.54
2023-04-15T03:52:40.927Z,0.52
2023-04-15T03:53:40.953Z,0.52
2023-04-15T03:54:41.012Z,0.53
2023-04-15T03:55:41.050Z,0.52
2023-04-15T03:56:41.104Z,0.52
2023-04-15T03:57:41.155Z,0.52
2023-04-15T03:58:41.261Z,0.53
2023-04-15T03:59:41.270Z,0.51
2023-04-15T04:00:41.327Z,0.52
2023-04-15T04:01:41.412Z,0.50
2023-04-15T04:02:41.711Z,0.53
2023-04-15T04:03:41.514Z,0.54
2023-04-15T04:04:41.569Z,0.53
2023-04-15T04:05:41.593Z,0.53
2023-04-15T04:06:41.608Z,0.53
2023-04-15T04:07:41.669Z,0.52
2023-04-15T04:08:41.685Z,0.51
2023-04-15T04:09:41.721Z,0.51
2023-04-15T04:10:41.770Z,0.51
2023-04-15T04:11:41.802Z,0.52
2023-04-15T04:12:41.868Z,0.55
2023-04-15T04:13:41.910Z,0.53
2023-04-15T04:14:41.950Z,0.52
2023-04-15T04:15:42.080Z,0.53
2023-04-15T04:16:42.133Z,0.55
2023-04-15T04:17:42.108Z,0.52
2023-04-15T04:18:42.179Z,0.51
2023-04-15T04:19:43.122Z,0.50
2023-04-15T04:20:42.268Z,0.53
2023-04-15T04:21:42.332Z,0.53
2023-04-15T04:22:42.352Z,0.52
2023-04-15T04:23:42.429Z,0.51
2023-04-15T04:24:42.464Z,0.51
2023-04-15T04:25:42.516Z,0.53
2023-04-15T04:26:42.582Z,0.51
2023-04-15T04:27:42.603Z,0.51
2023-04-15T04:28:42.619Z,0.51
2023-04-15T04:29:42.711Z,0.53
2023-04-15T04:30:42.741Z,0.54
2023-04-15T04:31:42.869Z,0.52
2023-04-15T04:32:42.864Z,0.50
2023-04-15T04:33:42.909Z,0.50
2023-04-15T04:34:42.939Z,0.52
2023-04-15T04:35:42.954Z,0.54
2023-04-15T04:36:43.018Z,0.55
2023-04-15T04:37:43.188Z,0.55
2023-04-15T04:38:43.105Z,0.52
2023-04-15T04:39:43.181Z,0.56
2023-04-15T04:40:43.225Z,0.53
2023-04-15T04:41:43.256Z,0.53
2023-04-15T04:42:43.284Z,0.55
2023-04-15T04:43:43.359Z,0.54
2023-04-15T04:44:43.427Z,0.54
2023-04-15T04:45:43.490Z,0.55
2023-04-15T04:46:43.519Z,0.52
2023-04-15T04:47:43.569Z,0.55
2023-04-15T04:48:44.420Z,0.55
2023-04-15T04:49:43.672Z,0.55
2023-04-15T04:50:43.691Z,0.54
2023-04-15T04:51:43.767Z,0.51
2023-04-15T04:52:43.781Z,0.54
2023-04-15T04:53:43.813Z,0.54
2023-04-15T04:54:43.831Z,0.51
2023-04-15T04:55:43.948Z,0.52
2023-04-15T04:56:43.974Z,0.53
2023-04-15T04:57:44.024Z,0.52
2023-04-15T04:58:44.048Z,0.54
2023-04-15T04:59:44.119Z,0.54
2023-04-15T05:00:44.162Z,0.51
2023-04-15T05:01:44.316Z,0.54
2023-04-15T05:02:44.439Z,0.52
2023-04-15T05:03:44.383Z,0.51
2023-04-15T05:04:44.363Z,0.52
2023-04-15T05:05:44.480Z,0.54
2023-04-15T05:06:44.443Z,0.51
2023-04-15T05:07:44.518Z,0.51
2023-04-15T05:08:44.595Z,0.51
2023-04-15T05:09:44.656Z,0.53
2023-04-15T05:10:44.680Z,0.53
2023-04-15T05:11:45.124Z,0.53
2023-04-15T05:12:44.778Z,0.52
2023-04-15T05:13:44.877Z,0.52
2023-04-15T05:14:44.905Z,0.51
2023-04-15T05:15:45.001Z,0.52
2023-04-15T05:16:44.981Z,0.53
2023-04-15T05:17:45.120Z,0.54
2023-04-15T05:18:45.082Z,0.53
2023-04-15T05:19:45.155Z,0.50
2023-04-15T05:20:45.176Z,0.50
2023-04-15T05:21:45.302Z,0.51
2023-04-15T05:22:45.271Z,0.52
2023-04-15T05:23:45.352Z,0.53
2023-04-15T05:24:45.624Z,0.51
2023-04-15T05:25:45.426Z,0.52
2023-04-15T05:26:45.494Z,0.52
2023-04-15T05:27:45.547Z,0.52
2023-04-15T05:28:45.638Z,0.52
2023-04-15T05:29:45.700Z,0.52
2023-04-15T05:30:45.737Z,0.52
2023-04-15T05:31:45.798Z,0.54
2023-04-15T05:32:45.910Z,0.54
2023-04-15T05:33:45.866Z,0.51
2023-04-15T05:34:45.971Z,0.51
2023-04-15T05:35:45.971Z,0.52
2023-04-15T05:36:46.010Z,0.53
2023-04-15T05:37:46.065Z,0.53
2023-04-15T05:38:46.099Z,0.54
2023-04-15T05:39:46.146Z,0.52
2023-04-15T05:40:46.208Z,0.53
2023-04-15T05:41:46.232Z,0.52
2023-04-15T05:42:46.304Z,0.53
2023-04-15T05:43:46.318Z,0.55
2023-04-15T05:44:46.384Z,0.55
2023-04-15T05:45:46.571Z,0.54
2023-04-15T05:46:46.484Z,0.56
2023-04-15T05:47:46.657Z,0.56
2023-04-15T05:48:46.577Z,0.56
2023-04-15T05:49:46.656Z,0.57
2023-04-15T05:50:46.711Z,0.55
2023-04-15T05:51:46.750Z,0.54
2023-04-15T05:52:46.854Z,0.54
2023-04-15T05:53:46.878Z,0.53
2023-04-15T05:54:46.951Z,0.53
2023-04-15T05:55:46.949Z,0.54
2023-04-15T05:56:47.090Z,0.54
2023-04-15T05:57:47.101Z,0.57
2023-04-15T05:58:47.121Z,0.57
2023-04-15T05:59:47.182Z,0.56
2023-04-15T06:00:47.262Z,0.56
2023-04-15T06:01:47.385Z,0.55
2023-04-15T06:02:47.482Z,0.56
2023-04-15T06:03:47.529Z,0.55
2023-04-15T06:04:47.544Z,0.57
2023-04-15T06:05:47.607Z,0.57
2023-04-15T06:06:47.622Z,0.56
2023-04-15T06:07:48.739Z,0.58
2023-04-15T06:08:47.719Z,0.58
2023-04-15T06:09:47.784Z,0.57
2023-04-15T06:10:47.855Z,0.59
2023-04-15T06:11:47.937Z,0.59
2023-04-15T06:12:47.953Z,0.58
2023-04-15T06:13:48.016Z,0.58
2023-04-15T06:14:48.087Z,0.55
2023-04-15T06:15:48.143Z,0.56
2023-04-15T06:16:48.214Z,0.58
2023-04-15T06:17:48.285Z,0.57
2023-04-15T06:18:48.309Z,0.56
2023-04-15T06:19:48.326Z,0.58
2023-04-15T06:20:48.392Z,0.57
2023-04-15T06:21:48.421Z,0.56
2023-04-15T06:22:48.499Z,0.55
2023-04-15T06:23:48.558Z,0.57
2023-04-15T06:24:48.628Z,0.55
2023-04-15T06:25:48.649Z,0.57
2023-04-15T06:26:48.703Z,0.56
2023-04-15T06:27:48.734Z,0.57
2023-04-15T06:28:48.824Z,0.59
2023-04-15T06:29:48.849Z,0.56
2023-04-15T06:30:48.908Z,0.56
2023-04-15T06:31:49.012Z,0.55
2023-04-15T06:32:48.998Z,0.55
2023-04-15T06:33:49.027Z,0.52
2023-04-15T06:34:49.048Z,0.54
2023-04-15T06:35:49.184Z,0.53
2023-04-15T06:36:49.652Z,0.55
2023-04-15T06:37:49.263Z,0.50
2023-04-15T06:38:49.283Z,0.55
2023-04-15T06:39:49.360Z,0.54
2023-04-15T06:40:49.430Z,0.50
2023-04-15T06:41:49.533Z,0.50
2023-04-15T06:42:49.529Z,0.51
2023-04-15T06:43:49.561Z,0.51
2023-04-15T06:44:49.613Z,0.52
2023-04-15T06:45:49.744Z,0.53
2023-04-15T06:46:49.743Z,0.51
2023-04-15T06:47:49.801Z,0.52
2023-04-15T06:48:49.818Z,0.52
2023-04-15T06:49:49.817Z,0.50
2023-04-15T06:50:49.884Z,0.55
2023-04-15T06:51:49.936Z,0.57
2023-04-15T06:52:50.002Z,0.53
2023-04-15T06:53:50.093Z,0.55
2023-04-15T06:54:50.101Z,0.53
2023-04-15T06:55:50.167Z,0.53
2023-04-15T06:56:50.210Z,0.56
2023-04-15T06:57:50.262Z,0.55
2023-04-15T06:58:50.338Z,0.53
2023-04-15T06:59:52.171Z,0.53
2023-04-15T07:00:50.436Z,0.53
2023-04-15T07:01:50.516Z,0.54
2023-04-15T07:02:50.521Z,0.54
2023-04-15T07:03:50.634Z,0.54
2023-04-15T07:04:50.670Z,0.52
2023-04-15T07:05:50.699Z,0.53
2023-04-15T07:06:50.753Z,0.51
2023-04-15T07:07:50.824Z,0.54
2023-04-15T07:08:50.866Z,0.51
2023-04-15T07:09:50.928Z,0.52
2023-04-15T07:10:50.977Z,0.50
2023-04-15T07:11:51.015Z,0.51
2023-04-15T07:12:51.093Z,0.52
2023-04-15T07:13:51.140Z,0.53
2023-04-15T07:14:51.192Z,0.53
2023-04-15T07:15:51.264Z,0.55
2023-04-15T07:16:51.370Z,0.55
2023-04-15T07:17:51.408Z,0.54
2023-04-15T07:18:51.405Z,0.54
2023-04-15T07:19:51.454Z,0.55
2023-04-15T07:20:51.487Z,0.55
2023-04-15T07:21:51.576Z,0.54
2023-04-15T07:22:51.593Z,0.54
2023-04-15T07:23:51.649Z,0.54
2023-04-15T07:24:51.756Z,0.54
2023-04-15T07:25:51.747Z,0.55
2023-04-15T07:26:51.826Z,0.54
2023-04-15T07:27:51.883Z,0.52
2023-04-15T07:28:51.899Z,0.55
2023-04-15T07:29:51.975Z,0.57
2023-04-15T07:30:52.082Z,0.55
2023-04-15T07:31:52.080Z,0.58
2023-04-15T07:32:52.205Z,0.58
2023-04-15T07:33:52.182Z,0.58
2023-04-15T07:34:52.277Z,0.56
2023-04-15T07:35:52.300Z,0.58
2023-04-15T07:36:52.385Z,0.60
2023-04-15T07:37:52.423Z,0.58
2023-04-15T07:38:52.475Z,0.61
2023-04-15T07:39:52.544Z,0.60
2023-04-15T07:40:52.609Z,0.60
2023-04-15T07:41:52.639Z,0.59
2023-04-15T07:42:52.735Z,0.58
2023-04-15T07:43:52.776Z,0.60
2023-04-15T07:44:52.836Z,0.63
2023-04-15T07:45:52.920Z,0.63
2023-04-15T07:46:52.952Z,0.64
2023-04-15T07:47:53.022Z,0.65
2023-04-15T07:48:53.062Z,0.62
2023-04-15T07:49:53.122Z,0.67
2023-04-15T07:50:53.229Z,0.67
2023-04-15T07:51:53.245Z,0.66
2023-04-15T07:52:53.293Z,0.67
2023-04-15T07:53:53.373Z,0.68
2023-04-15T07:54:53.432Z,0.67
2023-04-15T07:55:53.476Z,0.67
2023-04-15T07:56:53.535Z,0.69
2023-04-15T07:57:53.599Z,0.66
2023-04-15T07:58:53.650Z,0.65
2023-04-15T07:59:53.734Z,0.65
2023-04-15T08:00:53.757Z,0.64
2023-04-15T08:01:53.933Z,0.67
2023-04-15T08:02:54.159Z,0.65
2023-04-15T08:03:54.005Z,0.67
2023-04-15T08:04:54.036Z,0.64
2023-04-15T08:05:54.056Z,0.62
2023-04-15T08:06:54.082Z,0.64
2023-04-15T08:07:54.152Z,0.63
2023-04-15T08:08:54.219Z,0.60
2023-04-15T08:09:54.291Z,0.59
2023-04-15T08:10:54.370Z,0.57
2023-04-15T08:11:54.410Z,0.54
2023-04-15T08:12:54.446Z,0.55
2023-04-15T08:13:54.451Z,0.55
2023-04-15T08:14:54.630Z,0.55
2023-04-15T08:15:54.601Z,0.56
2023-04-15T08:16:54.661Z,0.50
2023-04-15T08:17:54.772Z,0.51
2023-04-15T08:18:54.790Z,0.51
2023-04-15T08:19:54.833Z,0.54
2023-04-15T08:20:54.861Z,0.50
2023-04-15T08:21:54.880Z,0.52
2023-04-15T08:22:54.933Z,0.53
2023-04-15T08:23:54.953Z,0.50
2023-04-15T08:24:55.047Z,0.53
2023-04-15T08:25:55.085Z,0.51
2023-04-15T08:26:55.127Z,0.50
2023-04-15T08:27:55.169Z,0.52
2023-04-15T08:28:55.231Z,0.50
2023-04-15T08:29:55.326Z,0.51
2023-04-15T08:30:55.344Z,0.52
2023-04-15T08:31:55.490Z,0.53
2023-04-15T08:32:55.468Z,0.51
2023-04-15T08:33:55.494Z,0.53
2023-04-15T08:34:55.566Z,0.50
2023-04-15T08:35:55.589Z,0.53
2023-04-15T08:36:55.647Z,0.52
2023-04-15T08:37:55.707Z,0.52
2023-04-15T08:38:55.824Z,0.52
2023-04-15T08:39:55.868Z,0.52
2023-04-15T08:40:55.897Z,0.51
2023-04-15T08:41:55.994Z,0.50
2023-04-15T08:42:56.023Z,0.54
2023-04-15T08:43:56.069Z,0.54
2023-04-15T08:44:56.181Z,0.54
2023-04-15T08:45:56.222Z,0.54
2023-04-15T08:46:56.315Z,0.53
2023-04-15T08:47:56.366Z,0.55
2023-04-15T08:48:56.407Z,0.56
2023-04-15T08:49:56.469Z,0.53
2023-04-15T08:50:56.478Z,0.51
2023-04-15T08:51:56.529Z,0.50
2023-04-15T08:52:56.611Z,0.52
2023-04-15T08:53:56.664Z,0.55
2023-04-15T08:54:56.731Z,0.51
2023-04-15T08:55:56.796Z,0.52
2023-04-15T08:56:56.892Z,0.54
2023-04-15T08:57:56.907Z,0.53
2023-04-15T08:58:56.918Z,0.55
2023-04-15T08:59:57.000Z,0.53
2023-04-15T09:00:57.049Z,0.51
2023-04-15T09:01:57.106Z,0.52
2023-04-15T09:02:57.203Z,0.54
2023-04-15T09:03:57.307Z,0.51
2023-04-15T09:04:57.281Z,0.51
2023-04-15T09:05:57.323Z,0.54
2023-04-15T09:06:57.384Z,0.51
2023-04-15T09:07:57.422Z,0.53
2023-04-15T09:08:57.470Z,0.50
2023-04-15T09:09:57.544Z,0.50
2023-04-15T09:10:57.570Z,0.51
2023-04-15T09:11:57.624Z,0.50
2023-04-15T09:12:57.749Z,0.51
2023-04-15T09:13:57.744Z,0.53
2023-04-15T09:14:57.817Z,0.50
2023-04-15T09:15:57.917Z,0.54
2023-04-15T09:16:57.955Z,0.56
2023-04-15T09:17:58.087Z,0.56
2023-04-15T09:18:58.012Z,0.54
2023-04-15T09:19:58.125Z,0.58
2023-04-15T09:20:58.138Z,0.56
2023-04-15T09:21:59.120Z,0.55
2023-04-15T09:22:58.236Z,0.57
2023-04-15T09:23:58.404Z,0.56
2023-04-15T09:24:58.436Z,0.53
2023-04-15T09:25:58.405Z,0.56
2023-04-15T09:26:58.482Z,0.56
2023-04-15T09:27:58.552Z,0.60
2023-04-15T09:28:58.571Z,0.58
2023-04-15T09:29:58.718Z,0.58
2023-04-15T09:30:58.718Z,0.58
2023-04-15T09:31:58.708Z,0.57
2023-04-15T09:32:58.820Z,0.58
2023-04-15T09:33:58.824Z,0.62
2023-04-15T09:34:58.920Z,0.60
2023-04-15T09:35:58.950Z,0.59
2023-04-15T09:36:58.997Z,0.59
2023-04-15T09:37:59.029Z,0.59
2023-04-15T09:38:59.123Z,0.55
2023-04-15T09:39:59.121Z,0.54
2023-04-15T09:40:59.203Z,0.56
2023-04-15T09:41:59.258Z,0.57
2023-04-15T09:42:59.275Z,0.56
2023-04-15T09:43:59.362Z,0.56
2023-04-15T09:44:59.408Z,0.58
2023-04-15T09:45:59.525Z,0.59
2023-04-15T09:46:59.517Z,0.59
2023-04-15T09:47:59.632Z,0.60
2023-04-15T09:48:59.669Z,0.62
2023-04-15T09:49:59.805Z,0.60
2023-04-15T09:50:59.781Z,0.57
2023-04-15T09:52:05.068Z,0.60
2023-04-15T09:53:00.792Z,0.59
2023-04-15T09:53:59.989Z,0.60
2023-04-15T09:54:59.761Z,0.59
2023-04-15T09:55:59.784Z,0.57
2023-04-15T09:56:59.743Z,0.62
2023-04-15T09:57:59.764Z,0.61
2023-04-15T09:58:59.781Z,0.60
2023-04-15T09:59:59.742Z,0.57
2023-04-15T10:00:59.802Z,0.63
2023-04-15T10:01:59.854Z,0.61
2023-04-15T10:02:59.979Z,0.64
2023-04-15T10:04:00.047Z,0.63
2023-04-15T10:04:59.990Z,0.61
2023-04-15T10:06:00.065Z,0.62
2023-04-15T10:07:00.071Z,0.64
2023-04-15T10:08:00.116Z,0.63
2023-04-15T10:09:00.208Z,0.65
2023-04-15T10:10:00.234Z,0.66
2023-04-15T10:11:00.308Z,0.66
2023-04-15T10:12:00.387Z,0.67
2023-04-15T10:13:00.450Z,0.68
2023-04-15T10:14:00.880Z,0.68
2023-04-15T10:15:00.535Z,0.69
2023-04-15T10:16:00.710Z,0.69
2023-04-15T10:17:00.677Z,0.69
2023-04-15T10:18:00.724Z,0.72
2023-04-15T10:19:00.766Z,0.75
2023-04-15T10:20:00.806Z,0.74
2023-04-15T10:21:00.845Z,0.79
2023-04-15T10:22:00.917Z,0.79
2023-04-15T10:23:00.997Z,0.80
2023-04-15T10:24:01.246Z,0.80
2023-04-15T10:25:01.088Z,0.83
2023-04-15T10:26:01.146Z,0.88
2023-04-15T10:27:01.197Z,0.86
2023-04-15T10:28:01.264Z,0.85
2023-04-15T10:29:01.334Z,0.87
2023-04-15T10:30:01.383Z,0.82
2023-04-15T10:31:01.597Z,0.84
2023-04-15T10:32:01.506Z,0.87
2023-04-15T10:33:01.578Z,0.88
2023-04-15T10:34:01.830Z,0.88
2023-04-15T10:35:01.683Z,0.86
2023-04-15T10:36:01.762Z,0.92
2023-04-15T10:37:01.729Z,0.91
2023-04-15T10:38:01.804Z,0.95
2023-04-15T10:39:01.898Z,0.99
2023-04-15T10:40:02.054Z,0.99
2023-04-15T10:41:02.024Z,1.03
2023-04-15T10:42:02.015Z,1.08
2023-04-15T10:43:02.085Z,1.05
2023-04-15T10:44:02.474Z,1.08
2023-04-15T10:45:02.170Z,1.12
2023-04-15T10:46:02.238Z,1.17
2023-04-15T10:47:02.306Z,1.18
2023-04-15T10:48:03.805Z,1.22
2023-04-15T10:49:02.756Z,1.21
2023-04-15T10:50:02.670Z,1.26
2023-04-15T10:51:02.544Z,1.29
2023-04-15T10:52:02.554Z,1.29
2023-04-15T10:53:02.643Z,1.32
2023-04-15T10:54:02.679Z,1.31
2023-04-15T10:55:02.765Z,1.31
2023-04-15T10:56:02.836Z,1.28
2023-04-15T10:57:02.900Z,1.31
2023-04-15T10:58:02.920Z,1.28
2023-04-15T10:59:03.003Z,1.29
2023-04-15T11:00:03.078Z,1.26
2023-04-15T11:01:03.132Z,1.24
2023-04-15T11:02:03.289Z,1.23
2023-04-15T11:03:03.298Z,1.21
2023-04-15T11:04:03.603Z,1.17
2023-04-15T11:05:03.386Z,1.11
2023-04-15T11:06:03.428Z,1.13
2023-04-15T11:07:03.445Z,1.12
2023-04-15T11:08:03.519Z,1.12
2023-04-15T11:09:03.589Z,1.12
2023-04-15T11:10:03.662Z,1.06
2023-04-15T11:11:03.724Z,1.04
2023-04-15T11:12:03.744Z,0.99
2023-04-15T11:13:03.813Z,1.00
2023-04-15T11:14:04.048Z,0.97
2023-04-15T11:15:03.953Z,0.97
2023-04-15T11:16:04.838Z,0.90
2023-04-15T11:17:04.095Z,0.92
2023-04-15T11:18:04.147Z,0.90
2023-04-15T11:19:04.155Z,0.87
2023-04-15T11:20:04.267Z,0.87
2023-04-15T11:21:04.303Z,0.84
2023-04-15T11:22:04.326Z,0.82
2023-04-15T11:23:13.396Z,0.83
2023-04-15T11:24:05.689Z,0.84
2023-04-15T11:25:04.393Z,0.84
2023-04-15T11:26:04.385Z,0.81
2023-04-15T11:27:04.443Z,0.83
2023-04-15T11:28:04.334Z,0.85
2023-04-15T11:29:04.673Z,0.86
2023-04-15T11:30:04.334Z,0.84
2023-04-15T11:31:04.356Z,0.83
2023-04-15T11:32:04.405Z,0.84
2023-04-15T11:33:04.529Z,0.86
2023-04-15T11:34:04.553Z,0.88
2023-04-15T11:35:04.584Z,0.86
2023-04-15T11:36:04.597Z,0.86
2023-04-15T11:37:04.625Z,0.89
2023-04-15T11:38:04.694Z,0.90
2023-04-15T11:39:04.759Z,0.91
2023-04-15T11:40:04.836Z,0.94
2023-04-15T11:41:04.890Z,0.97
2023-04-15T11:42:04.901Z,1.01
2023-04-15T11:43:04.975Z,1.01
2023-04-15T11:44:05.123Z,1.04
2023-04-15T11:45:05.094Z,1.04
2023-04-15T11:46:05.326Z,1.06
2023-04-15T11:47:05.225Z,1.10
2023-04-15T11:48:05.294Z,1.08
2023-04-15T11:49:05.324Z,1.07
2023-04-15T11:50:05.378Z,1.16
2023-04-15T11:51:05.494Z,1.18
2023-04-15T11:52:05.498Z,1.19
2023-04-15T11:53:08.137Z,1.20
2023-04-15T11:54:05.816Z,1.24
2023-04-15T11:55:05.564Z,1.26
2023-04-15T11:56:05.611Z,1.23
2023-04-15T11:57:05.516Z,1.24
2023-04-15T11:58:05.517Z,1.25
2023-04-15T11:59:05.543Z,1.22
2023-04-15T12:00:05.499Z,1.25
2023-04-15T12:01:05.485Z,1.27
2023-04-15T12:02:05.555Z,1.28
2023-04-15T12:03:05.682Z,1.32
2023-04-15T12:04:05.657Z,1.26
2023-04-15T12:05:05.543Z,1.28
2023-04-15T12:06:05.455Z,1.26
2023-04-15T12:07:05.442Z,1.32
2023-04-15T12:08:05.469Z,1.26
2023-04-15T12:09:05.436Z,1.32
2023-04-15T12:10:05.427Z,1.35
2023-04-15T12:11:05.456Z,1.30
2023-04-15T12:12:05.393Z,1.30
2023-04-15T12:13:05.499Z,1.27
2023-04-15T12:14:05.599Z,1.21
2023-04-15T12:15:05.382Z,1.21
2023-04-15T12:16:05.826Z,1.18
2023-04-15T12:17:05.462Z,1.14
2023-04-15T12:18:06.250Z,1.18
2023-04-15T12:19:05.351Z,1.15
2023-04-15T12:20:05.423Z,1.14
2023-04-15T12:21:05.352Z,1.16
2023-04-15T12:22:05.454Z,1.17
2023-04-15T12:23:05.376Z,1.22
2023-04-15T12:24:05.561Z,1.16
2023-04-15T12:25:05.361Z,1.12
2023-04-15T12:26:05.309Z,1.22
2023-04-15T12:27:05.334Z,1.20
2023-04-15T12:28:05.357Z,1.22
2023-04-15T12:29:05.281Z,1.24
2023-04-15T12:30:05.786Z,1.19
2023-04-15T12:31:05.449Z,1.27
2023-04-15T12:32:05.492Z,1.33
2023-04-15T12:33:05.608Z,1.34
2023-04-15T12:34:05.904Z,1.39
2023-04-15T12:35:05.628Z,1.39
2023-04-15T12:36:05.669Z,1.46
2023-04-15T12:37:05.686Z,1.43
2023-04-15T12:38:05.766Z,1.49
2023-04-15T12:39:05.822Z,1.46
2023-04-15T12:40:05.885Z,1.46
2023-04-15T12:41:05.918Z,1.51
2023-04-15T12:42:05.937Z,1.57
2023-04-15T12:43:05.992Z,1.61
2023-04-15T12:44:06.301Z,1.57
2023-04-15T12:45:06.093Z,1.60
2023-04-15T12:46:06.220Z,1.65
2023-04-15T12:47:06.234Z,1.68
2023-04-15T12:48:06.233Z,1.69
2023-04-15T12:49:06.308Z,1.72
2023-04-15T12:50:06.334Z,1.68
2023-04-15T12:51:06.437Z,1.73
2023-04-15T12:52:06.438Z,1.76
2023-04-15T12:53:06.497Z,1.76
2023-04-15T12:54:06.812Z,1.71
2023-04-15T12:55:06.616Z,1.80
2023-04-15T12:56:06.645Z,1.84
2023-04-15T12:57:07.594Z,1.82
2023-04-15T12:58:07.286Z,1.87
2023-04-15T12:59:06.815Z,1.96
2023-04-15T13:00:06.864Z,2.02
2023-04-15T13:01:06.917Z,2.01
2023-04-15T13:02:07.016Z,2.10
2023-04-15T13:03:07.404Z,2.14
2023-04-15T13:04:07.344Z,2.22
2023-04-15T13:05:07.101Z,2.24
2023-04-15T13:06:07.184Z,2.37
2023-04-15T13:07:07.211Z,2.48
2023-04-15T13:08:07.314Z,2.59
2023-04-15T13:09:07.295Z,2.63
2023-04-15T13:10:07.396Z,2.75
2023-04-15T13:11:07.565Z,2.91
2023-04-15T13:12:07.539Z,3.01
2023-04-15T13:13:07.614Z,3.18
2023-04-15T13:14:07.601Z,3.38
2023-04-15T13:15:07.619Z,3.46
2023-04-15T13:16:07.686Z,3.59
2023-04-15T13:17:07.721Z,3.75
2023-04-15T13:18:07.769Z,4.04
2023-04-15T13:19:07.825Z,4.27